logo
Rechercher aéroport 
image banner adimage banner adimage banner ad
image banner ad

FATW - Tswalu Game Reserve

Situé à Kuruman, South Africa

ICAO - FATW, IATA -

Données fournies par Airmate  

Information générale

Coordonnées: S27°12'10" E22°28'51"
Élévation : 3918 feet MSL.
Variation magnétique : -18° East
Voir autres Aéroports à Northern Cape

Données opérationnelles

Special qualification required
Heure actuelle UTC:
Heure actuelle locale:
Météo à : - ( 0 km )
METAR: KOAJ 282012Z 27004KT 10SM SCT060 BKN085 33/19 A2987 RMK AO2 TSE01 $
Voir NOTAMs / SUP AIP / TFR affectant cet aéroport [VIEW]
Fréquences de communication: [VIEW]

Pistes:

Identifiant RWYQFULongueur (ft)Largeur (ft)SurfaceLDA (ft)
18160°662945ASPH6660
36340°662945ASPH6660

Coordonnées de l'aéroport

Adresse: Kuruman South Africa

Vue satellite de FATW